Time;durP1;ratioP1;P1;durP2;ratioP2;P2;SDS_P1;SDS_P2;PMS_P1;PMS_P2;Temp;Humidity;BMP_temperature;BMP_pressure;BME280_temperature;BME280_humidity;BME280_pressure;Samples;Min_cycle;Max_cycle;Signal;HPM_P1;HPM_P2
2023/01/23 00:01:53;;;;;;;19.77;13.98;;;;;;;;;;4890092;28;100031;-76
2023/01/23 00:04:19;;;;;;;23.70;13.20;;;;;;;;;;4891384;28;98174;-75
2023/01/23 00:06:45;;;;;;;17.08;11.75;;;;;;;;;;4890446;28;98443;-75
2023/01/23 00:09:12;;;;;;;23.77;12.82;;;;;;;;;;4891111;28;99447;-75
2023/01/23 00:11:38;;;;;;;19.60;12.35;;;;;;;;;;4890539;28;98403;-75
2023/01/23 00:14:05;;;;;;;23.27;12.68;;;;;;;;;;4889857;28;99431;-75
2023/01/23 00:16:31;;;;;;;20.33;12.10;;;;;;;;;;4889891;28;99928;-75
2023/01/23 00:18:58;;;;;;;26.80;12.05;;;;;;;;;;4889874;28;98470;-75
2023/01/23 00:21:25;;;;;;;19.83;12.55;;;;;;;;;;4893607;28;99349;-75
2023/01/23 00:23:52;;;;;;;18.02;13.82;;;;;;;;;;4890723;28;98325;-75
2023/01/23 00:26:20;;;;;;;20.85;12.05;;;;;;;;;;4889649;28;99693;-75
2023/01/23 00:28:48;;;;;;;20.67;12.18;;;;;;;;;;4890383;28;100053;-74
2023/01/23 00:31:19;;;;;;;22.20;12.10;;;;;;;;;;4890226;28;98352;-75
2023/01/23 00:33:51;;;;;;;20.55;11.43;;;;;;;;;;4889922;28;98364;-74
2023/01/23 00:36:20;;;;;;;18.10;12.23;;;;;;;;;;4885673;28;98922;-74
2023/01/23 00:38:46;;;;;;;19.88;11.82;;;;;;;;;;4890232;28;98294;-75
2023/01/23 00:41:13;;;;;;;16.77;12.52;;;;;;;;;;4903287;28;99564;-75
2023/01/23 00:43:39;;;;;;;16.67;11.73;;;;;;;;;;4892151;28;98418;-74
2023/01/23 00:46:06;;;;;;;16.95;11.98;;;;;;;;;;4890555;28;99114;-75
2023/01/23 00:48:32;;;;;;;19.05;12.35;;;;;;;;;;4888850;28;98912;-76
2023/01/23 00:50:58;;;;;;;14.80;10.02;;;;;;;;;;4888206;28;99436;-74
2023/01/23 00:53:25;;;;;;;20.10;12.93;;;;;;;;;;4889535;28;99325;-74
2023/01/23 00:55:53;;;;;;;24.42;12.60;;;;;;;;;;4887452;28;101736;-76
2023/01/23 00:58:20;;;;;;;14.68;10.77;;;;;;;;;;4889580;28;98368;-75
2023/01/23 01:00:47;;;;;;;23.50;12.30;;;;;;;;;;4900861;28;100685;-75
2023/01/23 01:03:14;;;;;;;21.90;12.65;;;;;;;;;;4890139;28;101847;-75
2023/01/23 01:05:40;;;;;;;17.73;12.18;;;;;;;;;;4904042;28;101033;-75
2023/01/23 01:08:07;;;;;;;21.63;13.77;;;;;;;;;;4889871;28;100391;-75
2023/01/23 01:10:33;;;;;;;19.30;14.00;;;;;;;;;;4889944;28;98351;-75
2023/01/23 01:13:01;;;;;;;21.17;14.23;;;;;;;;;;4890358;28;99529;-75
2023/01/23 01:15:27;;;;;;;22.10;13.05;;;;;;;;;;4890739;28;99321;-75
2023/01/23 01:17:55;;;;;;;20.77;13.45;;;;;;;;;;4903808;28;98444;-74
2023/01/23 01:20:22;;;;;;;16.25;12.48;;;;;;;;;;4890331;28;98523;-74
2023/01/23 01:22:49;;;;;;;20.73;13.25;;;;;;;;;;4889113;28;99642;-75
2023/01/23 01:25:15;;;;;;;21.23;12.48;;;;;;;;;;4893147;28;98263;-75
2023/01/23 01:27:41;;;;;;;18.75;13.02;;;;;;;;;;4889265;28;98770;-75
2023/01/23 01:30:08;;;;;;;27.15;14.43;;;;;;;;;;4888117;28;98199;-74
2023/01/23 01:32:35;;;;;;;24.00;13.55;;;;;;;;;;4888314;28;100470;-74
2023/01/23 01:35:03;;;;;;;18.15;13.75;;;;;;;;;;4889240;28;98829;-74
2023/01/23 01:37:31;;;;;;;22.92;13.80;;;;;;;;;;4887116;28;98372;-74
2023/01/23 01:39:57;;;;;;;21.58;14.75;;;;;;;;;;4887460;28;100574;-74
2023/01/23 01:42:27;;;;;;;19.10;13.65;;;;;;;;;;4889369;28;99034;-75
2023/01/23 01:45:00;;;;;;;22.63;14.90;;;;;;;;;;4888662;28;99500;-76
2023/01/23 01:47:27;;;;;;;23.90;14.60;;;;;;;;;;4892816;28;99904;-75
2023/01/23 01:49:56;;;;;;;34.20;15.23;;;;;;;;;;4887321;28;98384;-75
2023/01/23 01:52:22;;;;;;;23.88;14.02;;;;;;;;;;4889275;28;99326;-76
2023/01/23 01:55:03;;;;;;;24.23;13.90;;;;;;;;;;4903043;28;99045;-75
2023/01/23 01:57:34;;;;;;;16.85;11.38;;;;;;;;;;4902942;28;98656;-75
2023/01/23 02:00:04;;;;;;;26.67;14.77;;;;;;;;;;4887705;28;100213;-75
2023/01/23 02:02:43;;;;;;;21.23;13.02;;;;;;;;;;4886747;28;98601;-74
2023/01/23 02:05:17;;;;;;;27.23;15.00;;;;;;;;;;4883770;28;99114;-75
2023/01/23 02:07:55;;;;;;;23.85;12.02;;;;;;;;;;4885907;28;98910;-74
2023/01/23 02:10:22;;;;;;;31.35;15.93;;;;;;;;;;4892355;28;99206;-75
2023/01/23 02:12:49;;;;;;;25.48;15.20;;;;;;;;;;4888716;28;99684;-75
2023/01/23 02:15:17;;;;;;;25.48;13.73;;;;;;;;;;4888601;28;99462;-75
2023/01/23 02:17:44;;;;;;;24.73;15.73;;;;;;;;;;4889052;28;98249;-75
2023/01/23 02:20:16;;;;;;;26.73;16.00;;;;;;;;;;4887198;28;99554;-75
2023/01/23 02:22:56;;;;;;;32.30;15.18;;;;;;;;;;4889063;28;98754;-75
2023/01/23 02:25:25;;;;;;;26.17;15.60;;;;;;;;;;4892727;28;98292;-74
2023/01/23 02:27:52;;;;;;;22.80;16.60;;;;;;;;;;4902878;28;101403;-75
2023/01/23 02:30:19;;;;;;;23.45;15.40;;;;;;;;;;4888989;28;98798;-74
2023/01/23 02:32:47;;;;;;;18.98;12.00;;;;;;;;;;4890322;28;98645;-74
2023/01/23 02:35:15;;;;;;;25.67;15.30;;;;;;;;;;4887492;28;100099;-75
2023/01/23 02:37:44;;;;;;;29.33;13.98;;;;;;;;;;4903701;28;98302;-75
2023/01/23 02:40:10;;;;;;;29.20;14.18;;;;;;;;;;4900166;28;98912;-75
2023/01/23 02:42:41;;;;;;;23.58;15.95;;;;;;;;;;4902951;28;99985;-74
2023/01/23 02:45:09;;;;;;;24.58;14.80;;;;;;;;;;4886115;28;98273;-74
2023/01/23 02:47:36;;;;;;;28.00;14.52;;;;;;;;;;4888230;28;98620;-74
2023/01/23 02:50:02;;;;;;;21.52;16.30;;;;;;;;;;4888360;28;99647;-75
2023/01/23 02:52:30;;;;;;;24.13;15.25;;;;;;;;;;4891884;28;98246;-75
2023/01/23 02:54:57;;;;;;;24.05;16.23;;;;;;;;;;4886577;28;100995;-75
2023/01/23 02:57:24;;;;;;;27.30;17.70;;;;;;;;;;4887787;28;99760;-75
2023/01/23 03:02:37;;;;;;;34.45;15.25;;;;;;;;;;4885399;28;101622;-76
2023/01/23 03:05:03;;;;;;;26.88;16.58;;;;;;;;;;4888089;28;98296;-74
2023/01/23 03:07:30;;;;;;;24.77;15.57;;;;;;;;;;4888848;28;98702;-74
2023/01/23 03:09:56;;;;;;;23.95;15.20;;;;;;;;;;4886540;28;99359;-74
2023/01/23 03:12:22;;;;;;;31.08;16.35;;;;;;;;;;4903075;28;98537;-74
2023/01/23 03:14:53;;;;;;;25.42;16.80;;;;;;;;;;4890645;28;99809;-73
2023/01/23 03:17:19;;;;;;;32.60;16.48;;;;;;;;;;4884402;28;98308;-74
2023/01/23 03:19:46;;;;;;;30.75;17.20;;;;;;;;;;4906481;28;100950;-75
2023/01/23 03:22:13;;;;;;;23.05;13.25;;;;;;;;;;4907247;28;99121;-75
2023/01/23 03:24:39;;;;;;;17.35;10.63;;;;;;;;;;4893449;28;98242;-75
2023/01/23 03:27:06;;;;;;;26.83;17.13;;;;;;;;;;4892963;28;99962;-75
2023/01/23 03:32:24;;;;;;;26.52;15.57;;;;;;;;;;4887073;28;98229;-74
2023/01/23 03:34:53;;;;;;;27.17;15.93;;;;;;;;;;4889451;28;101041;-75
2023/01/23 03:37:21;;;;;;;24.90;13.68;;;;;;;;;;4893340;28;99049;-74
2023/01/23 03:42:35;;;;;;;14.40;10.00;;;;;;;;;;4889140;28;101561;-74
2023/01/23 03:45:04;;;;;;;24.77;16.67;;;;;;;;;;4901659;28;98312;-74
2023/01/23 03:47:33;;;;;;;25.50;15.75;;;;;;;;;;4889723;28;100952;-75
2023/01/23 03:49:59;;;;;;;29.88;14.82;;;;;;;;;;4889604;28;100027;-74
2023/01/23 03:52:28;;;;;;;22.08;14.15;;;;;;;;;;4905485;28;98182;-74
2023/01/23 03:54:56;;;;;;;31.63;17.60;;;;;;;;;;4889514;28;101354;-74
2023/01/23 03:57:22;;;;;;;34.83;18.65;;;;;;;;;;4902799;28;102252;-75
2023/01/23 04:00:06;;;;;;;24.13;14.80;;;;;;;;;;4892369;28;99518;-74
2023/01/23 04:02:53;;;;;;;21.60;13.85;;;;;;;;;;4888124;28;99991;-74
2023/01/23 04:05:19;;;;;;;25.60;15.35;;;;;;;;;;4890201;28;98505;-74
2023/01/23 04:07:46;;;;;;;29.27;17.35;;;;;;;;;;4905542;28;100161;-74
2023/01/23 04:10:13;;;;;;;23.65;17.58;;;;;;;;;;4905200;28;101641;-74
2023/01/23 04:12:41;;;;;;;38.38;18.73;;;;;;;;;;4890075;28;98329;-75
2023/01/23 04:15:08;;;;;;;21.17;13.02;;;;;;;;;;4889306;28;98519;-75
2023/01/23 04:17:35;;;;;;;26.55;14.82;;;;;;;;;;4890736;28;99218;-74
2023/01/23 04:20:02;;;;;;;29.25;17.90;;;;;;;;;;4888627;28;98380;-75
2023/01/23 04:22:29;;;;;;;24.98;15.98;;;;;;;;;;4891103;28;101475;-74
2023/01/23 04:24:56;;;;;;;26.27;17.83;;;;;;;;;;4903980;28;98310;-75
2023/01/23 04:27:22;;;;;;;27.30;15.45;;;;;;;;;;4903898;28;100652;-75
2023/01/23 04:29:49;;;;;;;37.50;18.02;;;;;;;;;;4905307;28;100999;-74
2023/01/23 04:32:17;;;;;;;23.13;17.95;;;;;;;;;;4904105;28;99372;-75
2023/01/23 04:34:45;;;;;;;25.30;16.20;;;;;;;;;;4889444;28;101270;-74
2023/01/23 04:37:12;;;;;;;28.42;16.02;;;;;;;;;;4904615;28;99961;-74
2023/01/23 04:39:39;;;;;;;31.55;17.83;;;;;;;;;;4888512;28;99214;-76
2023/01/23 04:42:05;;;;;;;25.48;17.02;;;;;;;;;;4890925;28;98431;-75
2023/01/23 04:44:50;;;;;;;24.20;17.42;;;;;;;;;;4891223;28;98561;-75
2023/01/23 04:47:35;;;;;;;39.60;17.95;;;;;;;;;;4890184;28;98233;-74
2023/01/23 04:50:07;;;;;;;23.30;14.60;;;;;;;;;;4903831;28;101598;-75
2023/01/23 04:52:34;;;;;;;26.95;15.10;;;;;;;;;;4905700;28;98744;-75
2023/01/23 04:55:01;;;;;;;31.65;18.33;;;;;;;;;;4903315;28;99848;-73
2023/01/23 04:57:27;;;;;;;27.38;18.23;;;;;;;;;;4889783;28;98926;-74
2023/01/23 05:00:01;;;;;;;19.20;14.50;;;;;;;;;;4898157;28;98555;-75
2023/01/23 05:02:28;;;;;;;25.65;17.85;;;;;;;;;;4904111;28;100720;-75
2023/01/23 05:04:55;;;;;;;28.80;18.45;;;;;;;;;;4892684;28;100344;-75
2023/01/23 05:07:21;;;;;;;31.60;17.15;;;;;;;;;;4888080;28;101318;-74
2023/01/23 05:10:03;;;;;;;24.25;17.67;;;;;;;;;;4904023;28;98996;-74
2023/01/23 05:12:30;;;;;;;28.70;18.38;;;;;;;;;;4904807;28;98374;-74
2023/01/23 05:14:57;;;;;;;22.33;15.23;;;;;;;;;;4902787;28;101126;-74
2023/01/23 05:17:24;;;;;;;32.15;17.10;;;;;;;;;;4904384;28;101694;-74
2023/01/23 05:19:52;;;;;;;39.20;19.15;;;;;;;;;;4894007;28;98314;-74
2023/01/23 05:22:18;;;;;;;25.30;16.42;;;;;;;;;;4903753;28;101288;-74
2023/01/23 05:24:45;;;;;;;24.58;13.02;;;;;;;;;;4888329;28;101804;-74
2023/01/23 05:27:12;;;;;;;25.35;16.90;;;;;;;;;;4891640;28;99302;-74
2023/01/23 05:29:41;;;;;;;27.17;17.23;;;;;;;;;;4887597;28;100937;-74
2023/01/23 05:32:18;;;;;;;22.17;14.15;;;;;;;;;;4888508;28;98582;-74
2023/01/23 05:35:06;;;;;;;18.70;12.05;;;;;;;;;;4903747;28;99465;-74
2023/01/23 05:37:34;;;;;;;24.92;17.98;;;;;;;;;;4903567;28;99952;-75
2023/01/23 05:40:05;;;;;;;24.15;17.00;;;;;;;;;;4902530;28;98444;-75
2023/01/23 05:42:51;;;;;;;23.67;15.30;;;;;;;;;;4889141;28;98270;-75
2023/01/23 05:45:38;;;;;;;26.00;15.48;;;;;;;;;;4888479;28;98742;-74
2023/01/23 05:48:10;;;;;;;22.77;15.25;;;;;;;;;;4871031;28;98556;-75
2023/01/23 05:50:38;;;;;;;29.55;16.77;;;;;;;;;;4890479;28;101220;-75
2023/01/23 05:53:05;;;;;;;28.20;17.02;;;;;;;;;;4903728;28;98209;-75
2023/01/23 05:55:36;;;;;;;28.50;16.42;;;;;;;;;;4888171;28;100712;-75
2023/01/23 05:58:03;;;;;;;26.13;15.85;;;;;;;;;;4887021;28;102804;-75
2023/01/23 06:00:30;;;;;;;25.55;17.63;;;;;;;;;;4889362;28;98333;-75
2023/01/23 06:03:31;;;;;;;18.35;14.73;;;;;;;;;;4884737;28;99465;-74
2023/01/23 06:06:26;;;;;;;21.58;10.88;;;;;;;;;;4896990;28;100951;-74
2023/01/23 06:08:53;;;;;;;24.38;16.63;;;;;;;;;;4903466;28;98325;-74
2023/01/23 06:11:19;;;;;;;24.35;16.27;;;;;;;;;;4886939;28;100967;-74
2023/01/23 06:13:46;;;;;;;19.55;14.05;;;;;;;;;;4892319;28;99135;-74
2023/01/23 06:16:12;;;;;;;22.48;16.05;;;;;;;;;;4904500;28;100947;-75
2023/01/23 06:18:38;;;;;;;17.65;12.52;;;;;;;;;;4888622;28;99711;-74
2023/01/23 06:21:06;;;;;;;34.03;19.33;;;;;;;;;;4887673;28;99517;-74
2023/01/23 06:23:35;;;;;;;33.78;17.98;;;;;;;;;;4888066;28;99228;-75
2023/01/23 06:26:02;;;;;;;33.33;17.30;;;;;;;;;;4887992;28;98676;-75
2023/01/23 06:28:29;;;;;;;29.20;16.38;;;;;;;;;;4902151;28;99476;-74
2023/01/23 06:30:59;;;;;;;28.48;17.88;;;;;;;;;;4886197;28;100615;-75
2023/01/23 06:33:35;;;;;;;22.77;16.77;;;;;;;;;;4902434;28;101125;-74
2023/01/23 06:36:07;;;;;;;29.52;17.63;;;;;;;;;;4905979;28;98251;-75
2023/01/23 06:38:34;;;;;;;26.73;18.40;;;;;;;;;;4885746;28;100895;-74
2023/01/23 06:41:04;;;;;;;21.83;15.73;;;;;;;;;;4876738;28;99402;-74
2023/01/23 06:43:35;;;;;;;29.35;17.83;;;;;;;;;;4887374;28;100846;-73
2023/01/23 06:46:03;;;;;;;21.85;16.90;;;;;;;;;;4901453;28;100993;-74
2023/01/23 06:48:29;;;;;;;23.48;17.67;;;;;;;;;;4880074;28;98374;-73
2023/01/23 06:51:01;;;;;;;28.88;18.80;;;;;;;;;;4886404;28;99954;-74
2023/01/23 06:53:29;;;;;;;25.85;17.27;;;;;;;;;;4890867;28;99903;-73
2023/01/23 06:55:59;;;;;;;36.17;16.90;;;;;;;;;;4888921;28;100563;-75
2023/01/23 06:58:27;;;;;;;26.95;16.35;;;;;;;;;;4906595;28;99765;-74
2023/01/23 07:00:54;;;;;;;24.83;16.85;;;;;;;;;;4902182;28;98338;-74
2023/01/23 07:03:49;;;;;;;23.52;16.95;;;;;;;;;;4890145;28;99134;-74
2023/01/23 07:06:16;;;;;;;26.42;19.05;;;;;;;;;;4887567;28;101247;-75
2023/01/23 07:08:43;;;;;;;31.30;18.95;;;;;;;;;;4900005;28;100018;-73
2023/01/23 07:11:10;;;;;;;27.00;17.85;;;;;;;;;;4886385;28;100033;-73
2023/01/23 07:13:37;;;;;;;25.70;18.25;;;;;;;;;;4882608;28;101709;-74
2023/01/23 07:16:04;;;;;;;24.58;15.88;;;;;;;;;;4904470;28;99783;-74
2023/01/23 07:18:32;;;;;;;32.47;17.95;;;;;;;;;;4906902;28;101683;-76
2023/01/23 07:21:05;;;;;;;23.70;17.60;;;;;;;;;;4885219;28;99483;-76
2023/01/23 07:23:32;;;;;;;24.83;16.48;;;;;;;;;;4891397;28;98561;-76
2023/01/23 07:26:06;;;;;;;29.67;17.95;;;;;;;;;;4885920;28;100226;-75
2023/01/23 07:28:32;;;;;;;28.75;18.15;;;;;;;;;;4892629;28;100040;-75
2023/01/23 07:30:59;;;;;;;26.50;18.98;;;;;;;;;;4892718;28;98629;-76
2023/01/23 07:33:25;;;;;;;28.88;17.90;;;;;;;;;;4891002;28;99209;-76
2023/01/23 07:35:52;;;;;;;26.52;17.95;;;;;;;;;;4890391;28;98318;-76
2023/01/23 07:38:18;;;;;;;31.17;17.33;;;;;;;;;;4891254;28;99564;-76
2023/01/23 07:40:45;;;;;;;25.77;18.52;;;;;;;;;;4894796;28;99952;-76
2023/01/23 07:43:11;;;;;;;22.90;18.63;;;;;;;;;;4889671;28;100199;-76
2023/01/23 07:45:38;;;;;;;30.88;19.77;;;;;;;;;;4888957;28;100109;-76
2023/01/23 07:48:04;;;;;;;28.75;18.60;;;;;;;;;;4890210;28;98334;-75
2023/01/23 07:50:30;;;;;;;31.27;19.40;;;;;;;;;;4889944;28;99634;-76
2023/01/23 07:52:57;;;;;;;22.95;16.95;;;;;;;;;;4890746;28;99353;-76
2023/01/23 07:55:23;;;;;;;27.70;18.33;;;;;;;;;;4890947;28;98346;-75
2023/01/23 07:57:50;;;;;;;29.08;19.90;;;;;;;;;;4889672;28;98597;-77
2023/01/23 08:00:16;;;;;;;24.48;17.98;;;;;;;;;;4889231;28;100056;-77
2023/01/23 08:02:43;;;;;;;24.02;17.10;;;;;;;;;;4892007;28;98355;-76
2023/01/23 08:05:09;;;;;;;29.58;18.10;;;;;;;;;;4888568;28;98980;-76
2023/01/23 08:07:37;;;;;;;34.55;18.67;;;;;;;;;;4891270;28;98427;-75
2023/01/23 08:10:03;;;;;;;28.08;19.33;;;;;;;;;;4889536;28;99031;-76
2023/01/23 08:12:30;;;;;;;28.38;19.52;;;;;;;;;;4889698;28;99868;-76
2023/01/23 08:14:57;;;;;;;26.33;18.15;;;;;;;;;;4890027;28;100808;-76
2023/01/23 08:17:25;;;;;;;24.25;18.80;;;;;;;;;;4889499;28;99749;-75
2023/01/23 08:19:51;;;;;;;25.95;17.55;;;;;;;;;;4889993;28;98895;-76
2023/01/23 08:22:18;;;;;;;25.48;19.95;;;;;;;;;;4889644;28;99455;-77
2023/01/23 08:24:45;;;;;;;30.65;19.85;;;;;;;;;;4892674;28;98691;-77
2023/01/23 08:27:11;;;;;;;27.73;20.40;;;;;;;;;;4890050;28;98713;-76
2023/01/23 08:29:40;;;;;;;29.30;19.88;;;;;;;;;;4890156;28;98633;-75
2023/01/23 08:32:07;;;;;;;26.35;19.70;;;;;;;;;;4889257;28;99278;-76
2023/01/23 08:34:33;;;;;;;25.85;19.20;;;;;;;;;;4889809;28;98479;-75
2023/01/23 08:37:01;;;;;;;30.75;20.65;;;;;;;;;;4890019;28;98917;-75
2023/01/23 08:39:27;;;;;;;33.35;21.25;;;;;;;;;;4888941;28;101634;-76
2023/01/23 08:41:53;;;;;;;31.33;17.98;;;;;;;;;;4890023;28;99253;-76
2023/01/23 08:44:22;;;;;;;28.20;20.00;;;;;;;;;;4890458;28;99137;-75
2023/01/23 08:46:49;;;;;;;25.05;19.17;;;;;;;;;;4892567;28;100385;-75
2023/01/23 08:49:18;;;;;;;24.05;19.88;;;;;;;;;;4889851;28;99376;-75
2023/01/23 08:51:45;;;;;;;24.38;19.23;;;;;;;;;;4890146;28;100184;-76
2023/01/23 08:54:11;;;;;;;23.25;19.20;;;;;;;;;;4888853;28;98709;-76
2023/01/23 08:56:40;;;;;;;23.60;19.60;;;;;;;;;;4888913;28;98605;-76
2023/01/23 08:59:06;;;;;;;33.40;20.70;;;;;;;;;;4888562;28;100065;-76
2023/01/23 09:01:33;;;;;;;28.50;20.20;;;;;;;;;;4888464;28;98631;-75
2023/01/23 09:03:59;;;;;;;26.70;18.80;;;;;;;;;;4889330;28;99381;-77
2023/01/23 09:06:25;;;;;;;32.20;20.92;;;;;;;;;;4888922;28;99893;-75
2023/01/23 09:08:52;;;;;;;29.05;20.08;;;;;;;;;;4893000;28;99547;-76
2023/01/23 09:11:18;;;;;;;28.52;20.88;;;;;;;;;;4883909;28;99046;-75
2023/01/23 09:13:45;;;;;;;24.92;19.67;;;;;;;;;;4885175;28;98726;-75
2023/01/23 09:16:11;;;;;;;24.85;17.95;;;;;;;;;;4889327;28;99599;-76
2023/01/23 09:18:39;;;;;;;27.45;19.95;;;;;;;;;;4889392;28;99803;-75
2023/01/23 09:21:10;;;;;;;22.58;17.75;;;;;;;;;;4894810;28;98301;-76
2023/01/23 09:23:36;;;;;;;36.55;21.15;;;;;;;;;;4888317;28;99450;-75
2023/01/23 09:26:07;;;;;;;26.15;20.30;;;;;;;;;;4888990;28;100124;-75
2023/01/23 09:28:34;;;;;;;27.48;20.45;;;;;;;;;;4891911;28;98758;-76
2023/01/23 09:31:01;;;;;;;27.50;19.67;;;;;;;;;;4889328;28;100157;-76
2023/01/23 09:33:27;;;;;;;27.63;19.52;;;;;;;;;;4889131;28;98313;-76
2023/01/23 09:35:54;;;;;;;25.35;17.30;;;;;;;;;;4888208;28;99991;-76
2023/01/23 09:38:21;;;;;;;25.90;20.13;;;;;;;;;;4889202;28;99948;-76
2023/01/23 09:40:49;;;;;;;27.83;20.98;;;;;;;;;;4889282;28;98633;-76
2023/01/23 09:43:27;;;;;;;25.55;19.98;;;;;;;;;;4888388;28;98289;-76
2023/01/23 09:46:15;;;;;;;20.52;15.65;;;;;;;;;;4885743;28;99200;-76
2023/01/23 09:48:52;;;;;;;28.88;19.55;;;;;;;;;;4887484;28;99204;-75
2023/01/23 09:51:28;;;;;;;22.08;19.15;;;;;;;;;;4892227;28;98477;-75
2023/01/23 09:53:56;;;;;;;23.75;17.05;;;;;;;;;;4884732;28;98224;-75
2023/01/23 09:56:22;;;;;;;26.85;19.23;;;;;;;;;;4888748;28;99362;-75
2023/01/23 09:58:56;;;;;;;27.92;19.77;;;;;;;;;;4892023;28;100292;-75
2023/01/23 10:01:23;;;;;;;28.08;19.85;;;;;;;;;;4888367;28;98801;-76
2023/01/23 10:03:50;;;;;;;28.08;20.80;;;;;;;;;;4903698;28;98625;-76
2023/01/23 10:06:22;;;;;;;37.80;19.02;;;;;;;;;;4889311;28;99821;-76
2023/01/23 10:09:07;;;;;;;25.83;19.33;;;;;;;;;;4890745;28;98260;-76
2023/01/23 10:11:48;;;;;;;21.50;18.85;;;;;;;;;;4890426;28;99581;-76
2023/01/23 10:14:44;;;;;;;25.58;18.42;;;;;;;;;;4892019;28;100061;-76
2023/01/23 10:17:29;;;;;;;19.85;16.65;;;;;;;;;;4883676;28;99709;-76
2023/01/23 10:19:55;;;;;;;23.40;17.60;;;;;;;;;;4889485;28;100211;-76
2023/01/23 10:22:27;;;;;;;22.90;19.17;;;;;;;;;;4889856;28;98582;-76
2023/01/23 10:24:55;;;;;;;22.63;17.88;;;;;;;;;;4885899;28;99648;-76
2023/01/23 10:27:43;;;;;;;22.88;15.93;;;;;;;;;;4887935;28;100214;-76
2023/01/23 10:30:12;;;;;;;19.13;17.02;;;;;;;;;;4883835;28;98285;-76
2023/01/23 10:32:46;;;;;;;36.58;15.95;;;;;;;;;;4887812;28;99566;-75
2023/01/23 10:35:36;;;;;;;20.40;17.48;;;;;;;;;;4887875;28;99327;-75
2023/01/23 10:38:15;;;;;;;12.85;10.93;;;;;;;;;;4876363;28;98356;-75
2023/01/23 10:43:26;;;;;;;19.80;15.27;;;;;;;;;;4890283;28;98549;-76
2023/01/23 10:45:52;;;;;;;21.90;17.02;;;;;;;;;;4888379;28;98714;-74
2023/01/23 10:48:37;;;;;;;19.70;16.77;;;;;;;;;;4887900;28;100015;-76
2023/01/23 10:51:03;;;;;;;18.67;16.25;;;;;;;;;;4887496;28;98319;-76
2023/01/23 10:53:30;;;;;;;19.75;17.67;;;;;;;;;;4887634;28;99841;-74
2023/01/23 10:55:58;;;;;;;19.65;17.27;;;;;;;;;;4892635;28;100030;-75
2023/01/23 10:58:27;;;;;;;17.10;13.02;;;;;;;;;;4882303;28;98215;-74
2023/01/23 11:00:54;;;;;;;19.95;15.25;;;;;;;;;;4890195;28;99633;-75
2023/01/23 11:03:20;;;;;;;17.58;12.88;;;;;;;;;;4888019;28;98272;-74
2023/01/23 11:05:54;;;;;;;18.60;14.88;;;;;;;;;;4887133;28;98511;-74
2023/01/23 11:08:22;;;;;;;19.25;14.18;;;;;;;;;;4889903;28;100039;-75
2023/01/23 11:10:48;;;;;;;16.58;14.88;;;;;;;;;;4889703;28;98271;-73
2023/01/23 11:13:26;;;;;;;15.88;14.07;;;;;;;;;;4887105;28;99610;-75
2023/01/23 11:15:53;;;;;;;15.88;14.18;;;;;;;;;;4892419;28;100230;-75
2023/01/23 11:18:38;;;;;;;15.98;14.27;;;;;;;;;;4889434;28;98309;-75
2023/01/23 11:21:05;;;;;;;19.40;16.00;;;;;;;;;;4886641;28;99622;-75
2023/01/23 11:23:32;;;;;;;18.73;15.98;;;;;;;;;;4893862;28;99850;-75
2023/01/23 11:25:59;;;;;;;18.73;12.93;;;;;;;;;;4887874;28;98644;-74
2023/01/23 11:28:33;;;;;;;14.30;12.25;;;;;;;;;;4887434;28;99197;-75
2023/01/23 11:31:00;;;;;;;16.98;15.00;;;;;;;;;;4886529;28;98378;-74
2023/01/23 11:33:51;;;;;;;16.77;13.93;;;;;;;;;;4887419;28;99417;-75
2023/01/23 11:36:17;;;;;;;17.48;15.20;;;;;;;;;;4882880;28;100337;-74
2023/01/23 11:38:45;;;;;;;16.05;14.35;;;;;;;;;;4893757;28;98297;-75
2023/01/23 11:41:18;;;;;;;18.75;15.70;;;;;;;;;;4892419;28;99189;-75
2023/01/23 11:43:44;;;;;;;19.75;15.25;;;;;;;;;;4894870;28;100134;-78
2023/01/23 11:46:25;;;;;;;18.42;15.48;;;;;;;;;;4890941;28;98783;-76
2023/01/23 11:49:01;;;;;;;20.92;15.65;;;;;;;;;;4890063;28;100376;-77
2023/01/23 11:51:45;;;;;;;17.00;14.27;;;;;;;;;;4891067;28;98370;-77
2023/01/23 11:54:30;;;;;;;17.95;15.27;;;;;;;;;;4890529;28;99819;-74
2023/01/23 11:57:01;;;;;;;18.95;14.77;;;;;;;;;;4888662;28;99259;-76
2023/01/23 11:59:46;;;;;;;15.80;14.20;;;;;;;;;;4890902;28;98230;-75
2023/01/23 12:02:40;;;;;;;15.40;13.80;;;;;;;;;;4891002;28;98845;-76
2023/01/23 12:05:13;;;;;;;15.05;12.77;;;;;;;;;;4885973;28;99997;-75
2023/01/23 12:07:46;;;;;;;14.88;8.85;;;;;;;;;;4893846;28;99066;-76
2023/01/23 12:10:27;;;;;;;15.98;14.10;;;;;;;;;;4888331;28;100314;-75
2023/01/23 12:12:53;;;;;;;17.77;13.63;;;;;;;;;;4889838;28;98356;-75
2023/01/23 12:15:38;;;;;;;21.10;14.82;;;;;;;;;;4891652;28;98442;-75
2023/01/23 12:18:14;;;;;;;17.23;14.90;;;;;;;;;;4891014;28;99905;-76
2023/01/23 12:20:40;;;;;;;16.33;14.70;;;;;;;;;;4891053;28;99292;-76
2023/01/23 12:23:12;;;;;;;21.45;13.80;;;;;;;;;;4889807;28;99215;-77
2023/01/23 12:25:39;;;;;;;17.75;13.82;;;;;;;;;;4889818;28;101346;-76
2023/01/23 12:28:05;;;;;;;17.63;14.88;;;;;;;;;;4889975;28;98448;-76
2023/01/23 12:30:32;;;;;;;14.80;13.13;;;;;;;;;;4890781;28;100091;-76
2023/01/23 12:33:04;;;;;;;19.38;14.45;;;;;;;;;;4890017;28;98339;-76
2023/01/23 12:35:39;;;;;;;15.32;13.73;;;;;;;;;;4890629;28;99844;-76
2023/01/23 12:38:23;;;;;;;15.20;13.05;;;;;;;;;;4889047;28;100173;-76
2023/01/23 12:40:52;;;;;;;14.20;12.73;;;;;;;;;;4890537;28;98168;-76
2023/01/23 12:43:32;;;;;;;13.90;11.95;;;;;;;;;;4890143;28;99607;-76
2023/01/23 12:46:10;;;;;;;12.73;11.43;;;;;;;;;;4889090;28;99092;-76
2023/01/23 12:48:39;;;;;;;13.95;11.95;;;;;;;;;;4888672;28;98651;-75
2023/01/23 12:51:13;;;;;;;14.85;11.50;;;;;;;;;;4889595;28;99506;-75
2023/01/23 12:53:40;;;;;;;14.98;12.00;;;;;;;;;;4887854;28;99913;-75
2023/01/23 12:56:16;;;;;;;21.90;12.00;;;;;;;;;;4889764;28;99675;-75
2023/01/23 12:58:55;;;;;;;12.50;11.27;;;;;;;;;;4887511;28;99016;-75
2023/01/23 13:01:38;;;;;;;11.95;10.60;;;;;;;;;;4889625;28;98360;-75
2023/01/23 13:04:13;;;;;;;15.07;11.30;;;;;;;;;;4889715;28;99672;-76
2023/01/23 13:06:39;;;;;;;14.20;11.10;;;;;;;;;;4889033;28;100136;-75
2023/01/23 13:09:25;;;;;;;13.75;10.82;;;;;;;;;;4889591;28;99110;-75
2023/01/23 13:11:51;;;;;;;12.05;10.88;;;;;;;;;;4889479;28;98815;-77
2023/01/23 13:14:17;;;;;;;10.82;9.73;;;;;;;;;;4888158;28;100021;-76
2023/01/23 13:16:45;;;;;;;10.30;9.27;;;;;;;;;;4893117;28;98272;-76
2023/01/23 13:22:17;;;;;;;10.48;9.38;;;;;;;;;;4889486;28;99803;-74
2023/01/23 13:25:11;;;;;;;11.88;10.68;;;;;;;;;;4887881;28;98344;-75
2023/01/23 13:27:38;;;;;;;11.05;9.32;;;;;;;;;;4888510;28;100128;-74
2023/01/23 13:30:20;;;;;;;9.77;8.88;;;;;;;;;;4889338;28;100318;-75
2023/01/23 13:32:48;;;;;;;9.80;8.88;;;;;;;;;;4889533;28;98854;-74
2023/01/23 13:35:46;;;;;;;8.90;8.00;;;;;;;;;;4888046;28;100046;-75
2023/01/23 13:38:21;;;;;;;11.02;9.98;;;;;;;;;;4887185;28;99554;-75
2023/01/23 13:41:13;;;;;;;9.48;8.50;;;;;;;;;;4887807;28;100588;-75
2023/01/23 13:43:48;;;;;;;10.02;9.07;;;;;;;;;;4882631;28;98456;-75
2023/01/23 13:46:25;;;;;;;9.07;8.27;;;;;;;;;;4888175;28;98851;-75
2023/01/23 13:51:58;;;;;;;9.65;8.70;;;;;;;;;;4843169;28;99554;-74
2023/01/23 13:57:38;;;;;;;11.63;10.63;;;;;;;;;;4754246;29;100311;-74
2023/01/23 14:00:19;;;;;;;10.63;9.52;;;;;;;;;;4731151;29;99761;-74
2023/01/23 14:06:12;;;;;;;13.85;11.90;;;;;;;;;;4664805;30;98471;-74
2023/01/23 14:08:53;;;;;;;13.82;11.13;;;;;;;;;;4650693;30;99945;-74
2023/01/23 14:11:37;;;;;;;16.42;11.93;;;;;;;;;;4647871;30;99848;-74
2023/01/23 14:17:18;;;;;;;14.25;12.88;;;;;;;;;;4653387;30;100466;-74
2023/01/23 14:20:05;;;;;;;16.30;13.52;;;;;;;;;;4623773;30;99888;-74
2023/01/23 14:22:45;;;;;;;16.15;13.10;;;;;;;;;;4655050;30;98356;-74
2023/01/23 14:25:16;;;;;;;14.07;9.63;;;;;;;;;;4665046;30;100115;-74
2023/01/23 14:27:42;;;;;;;14.02;12.18;;;;;;;;;;4758518;29;99979;-74
2023/01/23 14:30:22;;;;;;;14.70;12.63;;;;;;;;;;4811528;29;99319;-75
2023/01/23 14:32:49;;;;;;;19.02;13.75;;;;;;;;;;4846221;28;100344;-74
2023/01/23 14:35:15;;;;;;;13.48;11.73;;;;;;;;;;4846872;28;98501;-74
2023/01/23 14:37:42;;;;;;;13.95;12.48;;;;;;;;;;4862043;28;100750;-74
2023/01/23 14:40:15;;;;;;;15.23;12.38;;;;;;;;;;4888029;28;99074;-74
2023/01/23 14:42:56;;;;;;;13.45;12.05;;;;;;;;;;4880951;28;99545;-73
2023/01/23 14:45:22;;;;;;;11.45;10.30;;;;;;;;;;4886719;28;100340;-73
2023/01/23 14:47:49;;;;;;;8.07;7.07;;;;;;;;;;4887836;28;100000;-74
2023/01/23 14:50:30;;;;;;;10.25;9.20;;;;;;;;;;4888123;28;98232;-73
2023/01/23 14:53:15;;;;;;;13.88;11.23;;;;;;;;;;4894685;28;100201;-74
2023/01/23 14:55:44;;;;;;;9.75;8.77;;;;;;;;;;4885678;28;98402;-74
2023/01/23 14:58:19;;;;;;;19.98;9.70;;;;;;;;;;4886946;28;99834;-74
2023/01/23 15:00:46;;;;;;;10.38;9.13;;;;;;;;;;4885864;28;100265;-74